sensor_id;sensor_type;location;lat;lon;timestamp;P1;P4;P2;P0;N10;N4;N25;N1;N05;TS
67700;SPS30;55380;54.156;18.708;2023-05-23T00:00:00;9.1;;9.1;8.6;;;;;;
67700;SPS30;55380;54.156;18.708;2023-05-23T00:02:00;9.0;;9.0;8.5;;;;;;
67700;SPS30;55380;54.156;18.708;2023-05-23T00:04:00;9.6;;9.6;9.1;;;;;;
67700;SPS30;55380;54.156;18.708;2023-05-23T00:06:00;8.9;;8.9;8.4;;;;;;
67700;SPS30;55380;54.156;18.708;2023-05-23T00:08:00;8.9;;8.9;8.4;;;;;;
67700;SPS30;55380;54.156;18.708;2023-05-23T00:10:00;9.2;;9.2;8.7;;;;;;
67700;SPS30;55380;54.156;18.708;2023-05-23T00:12:00;9.6;;9.6;9.0;;;;;;
67700;SPS30;55380;54.156;18.708;2023-05-23T00:14:00;9.3;;9.3;8.8;;;;;;
67700;SPS30;55380;54.156;18.708;2023-05-23T00:16:00;9.4;;9.4;8.9;;;;;;
67700;SPS30;55380;54.156;18.708;2023-05-23T00:18:00;9.2;;9.2;8.7;;;;;;
67700;SPS30;55380;54.156;18.708;2023-05-23T00:20:00;9.9;;9.9;9.4;;;;;;
67700;SPS30;55380;54.156;18.708;2023-05-23T00:22:00;9.9;;9.9;9.4;;;;;;
67700;SPS30;55380;54.156;18.708;2023-05-23T00:24:00;9.4;;9.4;8.9;;;;;;
67700;SPS30;55380;54.156;18.708;2023-05-23T00:26:00;9.4;;9.4;8.9;;;;;;
67700;SPS30;55380;54.156;18.708;2023-05-23T00:28:00;9.6;;9.6;9.1;;;;;;
67700;SPS30;55380;54.156;18.708;2023-05-23T00:30:00;9.7;;9.7;9.1;;;;;;
67700;SPS30;55380;54.156;18.708;2023-05-23T00:32:00;8.7;;8.7;8.2;;;;;;
67700;SPS30;55380;54.156;18.708;2023-05-23T00:34:00;9.4;;9.4;8.9;;;;;;
67700;SPS30;55380;54.156;18.708;2023-05-23T00:36:00;9.3;;9.3;8.7;;;;;;
67700;SPS30;55380;54.156;18.708;2023-05-23T00:38:00;9.3;;9.3;8.8;;;;;;
67700;SPS30;55380;54.156;18.708;2023-05-23T00:40:00;9.4;;9.4;8.9;;;;;;
67700;SPS30;55380;54.156;18.708;2023-05-23T00:42:02;9.3;;9.3;8.8;;;;;;
67700;SPS30;55380;54.156;18.708;2023-05-23T00:44:00;9.2;;9.2;8.7;;;;;;
67700;SPS30;55380;54.156;18.708;2023-05-23T00:46:00;8.8;;8.8;8.4;;;;;;
67700;SPS30;55380;54.156;18.708;2023-05-23T00:48:00;8.6;;8.6;8.1;;;;;;
67700;SPS30;55380;54.156;18.708;2023-05-23T00:50:00;8.7;;8.7;8.2;;;;;;
67700;SPS30;55380;54.156;18.708;2023-05-23T00:52:00;8.4;;8.4;7.9;;;;;;
67700;SPS30;55380;54.156;18.708;2023-05-23T00:54:00;8.4;;8.4;8.0;;;;;;
67700;SPS30;55380;54.156;18.708;2023-05-23T00:56:00;8.6;;8.6;8.1;;;;;;
67700;SPS30;55380;54.156;18.708;2023-05-23T00:58:00;8.2;;8.2;7.8;;;;;;
67700;SPS30;55380;54.156;18.708;2023-05-23T01:00:00;7.8;;7.8;7.4;;;;;;
67700;SPS30;55380;54.156;18.708;2023-05-23T01:02:00;8.0;;8.0;7.6;;;;;;
67700;SPS30;55380;54.156;18.708;2023-05-23T01:04:00;7.6;;7.6;7.2;;;;;;
67700;SPS30;55380;54.156;18.708;2023-05-23T01:06:00;7.8;;7.8;7.3;;;;;;
67700;SPS30;55380;54.156;18.708;2023-05-23T01:08:00;7.9;;7.9;7.5;;;;;;
67700;SPS30;55380;54.156;18.708;2023-05-23T01:10:00;7.3;;7.3;6.9;;;;;;
67700;SPS30;55380;54.156;18.708;2023-05-23T01:12:05;8.0;;8.0;7.6;;;;;;
67700;SPS30;55380;54.156;18.708;2023-05-23T01:14:02;8.1;;8.1;7.6;;;;;;
67700;SPS30;55380;54.156;18.708;2023-05-23T01:16:01;7.5;;7.5;7.1;;;;;;
67700;SPS30;55380;54.156;18.708;2023-05-23T01:18:01;7.7;;7.7;7.3;;;;;;
67700;SPS30;55380;54.156;18.708;2023-05-23T01:20:02;7.8;;7.8;7.3;;;;;;
67700;SPS30;55380;54.156;18.708;2023-05-23T01:22:00;8.0;;8.0;7.5;;;;;;
67700;SPS30;55380;54.156;18.708;2023-05-23T01:26:02;7.1;;7.1;6.7;;;;;;
67700;SPS30;55380;54.156;18.708;2023-05-23T01:28:01;7.6;;7.6;7.2;;;;;;
67700;SPS30;55380;54.156;18.708;2023-05-23T01:30:00;7.8;;7.8;7.4;;;;;;
67700;SPS30;55380;54.156;18.708;2023-05-23T01:32:00;7.5;;7.5;7.1;;;;;;
67700;SPS30;55380;54.156;18.708;2023-05-23T01:34:00;7.5;;7.5;7.1;;;;;;
67700;SPS30;55380;54.156;18.708;2023-05-23T01:36:00;7.8;;7.8;7.4;;;;;;
67700;SPS30;55380;54.156;18.708;2023-05-23T01:38:00;7.7;;7.7;7.3;;;;;;
67700;SPS30;55380;54.156;18.708;2023-05-23T01:40:00;7.5;;7.5;7.1;;;;;;
67700;SPS30;55380;54.156;18.708;2023-05-23T01:42:00;7.5;;7.5;7.1;;;;;;
67700;SPS30;55380;54.156;18.708;2023-05-23T01:44:00;8.4;;8.4;8.0;;;;;;
67700;SPS30;55380;54.156;18.708;2023-05-23T01:46:00;8.4;;8.4;7.9;;;;;;
67700;SPS30;55380;54.156;18.708;2023-05-23T01:48:00;7.7;;7.7;7.3;;;;;;
67700;SPS30;55380;54.156;18.708;2023-05-23T01:50:00;8.4;;8.4;7.9;;;;;;
67700;SPS30;55380;54.156;18.708;2023-05-23T01:52:00;9.2;;9.2;8.7;;;;;;
67700;SPS30;55380;54.156;18.708;2023-05-23T01:54:00;9.4;;9.4;8.9;;;;;;
67700;SPS30;55380;54.156;18.708;2023-05-23T01:56:00;9.3;;9.3;8.8;;;;;;
67700;SPS30;55380;54.156;18.708;2023-05-23T01:58:00;9.3;;9.3;8.8;;;;;;
67700;SPS30;55380;54.156;18.708;2023-05-23T02:00:00;9.1;;9.1;8.6;;;;;;
67700;SPS30;55380;54.156;18.708;2023-05-23T02:02:00;8.2;;8.2;7.8;;;;;;
67700;SPS30;55380;54.156;18.708;2023-05-23T02:04:00;8.8;;8.8;8.3;;;;;;
67700;SPS30;55380;54.156;18.708;2023-05-23T02:06:00;8.9;;8.9;8.4;;;;;;
67700;SPS30;55380;54.156;18.708;2023-05-23T02:08:00;8.1;;8.1;7.6;;;;;;
67700;SPS30;55380;54.156;18.708;2023-05-23T02:10:00;8.1;;8.1;7.7;;;;;;
67700;SPS30;55380;54.156;18.708;2023-05-23T02:12:00;8.1;;8.1;7.7;;;;;;
67700;SPS30;55380;54.156;18.708;2023-05-23T02:14:00;8.2;;8.2;7.8;;;;;;
67700;SPS30;55380;54.156;18.708;2023-05-23T02:16:00;8.6;;8.6;8.1;;;;;;
67700;SPS30;55380;54.156;18.708;2023-05-23T02:18:00;8.8;;8.8;8.4;;;;;;
67700;SPS30;55380;54.156;18.708;2023-05-23T02:20:00;8.3;;8.3;7.8;;;;;;
67700;SPS30;55380;54.156;18.708;2023-05-23T02:22:00;8.2;;8.2;7.8;;;;;;
67700;SPS30;55380;54.156;18.708;2023-05-23T02:24:00;7.9;;7.9;7.5;;;;;;
67700;SPS30;55380;54.156;18.708;2023-05-23T02:26:00;8.4;;8.4;7.9;;;;;;
67700;SPS30;55380;54.156;18.708;2023-05-23T02:28:00;8.4;;8.4;8.0;;;;;;
67700;SPS30;55380;54.156;18.708;2023-05-23T02:30:00;8.4;;8.4;7.9;;;;;;
67700;SPS30;55380;54.156;18.708;2023-05-23T02:32:00;7.7;;7.7;7.3;;;;;;
67700;SPS30;55380;54.156;18.708;2023-05-23T02:34:00;8.0;;8.0;7.6;;;;;;
67700;SPS30;55380;54.156;18.708;2023-05-23T02:36:00;7.8;;7.8;7.4;;;;;;
67700;SPS30;55380;54.156;18.708;2023-05-23T02:38:00;7.9;;7.9;7.5;;;;;;
67700;SPS30;55380;54.156;18.708;2023-05-23T02:40:00;7.7;;7.7;7.3;;;;;;
67700;SPS30;55380;54.156;18.708;2023-05-23T02:42:00;7.8;;7.8;7.4;;;;;;
67700;SPS30;55380;54.156;18.708;2023-05-23T02:44:00;8.1;;8.1;7.6;;;;;;
67700;SPS30;55380;54.156;18.708;2023-05-23T02:46:00;8.1;;8.1;7.6;;;;;;
67700;SPS30;55380;54.156;18.708;2023-05-23T02:48:00;8.2;;8.2;7.7;;;;;;
67700;SPS30;55380;54.156;18.708;2023-05-23T02:50:00;7.9;;7.9;7.5;;;;;;
67700;SPS30;55380;54.156;18.708;2023-05-23T02:52:00;8.2;;8.2;7.7;;;;;;
67700;SPS30;55380;54.156;18.708;2023-05-23T02:54:00;7.8;;7.8;7.4;;;;;;
67700;SPS30;55380;54.156;18.708;2023-05-23T02:56:00;8.3;;8.3;7.9;;;;;;
67700;SPS30;55380;54.156;18.708;2023-05-23T02:58:00;8.0;;8.0;7.6;;;;;;
67700;SPS30;55380;54.156;18.708;2023-05-23T03:00:00;8.5;;8.5;8.0;;;;;;
67700;SPS30;55380;54.156;18.708;2023-05-23T03:02:00;8.6;;8.6;8.2;;;;;;
67700;SPS30;55380;54.156;18.708;2023-05-23T03:04:00;8.1;;8.1;7.6;;;;;;
67700;SPS30;55380;54.156;18.708;2023-05-23T03:06:00;8.2;;8.2;7.8;;;;;;
67700;SPS30;55380;54.156;18.708;2023-05-23T03:08:00;8.3;;8.3;7.9;;;;;;
67700;SPS30;55380;54.156;18.708;2023-05-23T03:10:00;8.3;;8.3;7.8;;;;;;
67700;SPS30;55380;54.156;18.708;2023-05-23T03:12:00;8.4;;8.4;8.0;;;;;;
67700;SPS30;55380;54.156;18.708;2023-05-23T03:14:00;8.2;;8.2;7.7;;;;;;
67700;SPS30;55380;54.156;18.708;2023-05-23T03:16:00;7.7;;7.7;7.3;;;;;;
67700;SPS30;55380;54.156;18.708;2023-05-23T03:18:00;8.5;;8.5;8.0;;;;;;
67700;SPS30;55380;54.156;18.708;2023-05-23T03:20:00;8.4;;8.4;7.9;;;;;;
67700;SPS30;55380;54.156;18.708;2023-05-23T03:22:00;8.7;;8.7;8.2;;;;;;
67700;SPS30;55380;54.156;18.708;2023-05-23T03:24:00;7.5;;7.5;7.1;;;;;;
67700;SPS30;55380;54.156;18.708;2023-05-23T03:26:00;7.7;;7.7;7.3;;;;;;
67700;SPS30;55380;54.156;18.708;2023-05-23T03:28:00;7.7;;7.7;7.3;;;;;;
67700;SPS30;55380;54.156;18.708;2023-05-23T03:30:01;7.8;;7.8;7.4;;;;;;
67700;SPS30;55380;54.156;18.708;2023-05-23T03:32:00;7.5;;7.5;7.1;;;;;;
67700;SPS30;55380;54.156;18.708;2023-05-23T03:34:00;7.3;;7.3;6.9;;;;;;
67700;SPS30;55380;54.156;18.708;2023-05-23T03:36:00;7.6;;7.6;7.2;;;;;;
67700;SPS30;55380;54.156;18.708;2023-05-23T03:38:00;7.7;;7.7;7.3;;;;;;
67700;SPS30;55380;54.156;18.708;2023-05-23T03:40:00;7.9;;7.9;7.5;;;;;;
67700;SPS30;55380;54.156;18.708;2023-05-23T03:42:00;8.2;;8.2;7.7;;;;;;
67700;SPS30;55380;54.156;18.708;2023-05-23T03:44:00;7.6;;7.6;7.2;;;;;;
67700;SPS30;55380;54.156;18.708;2023-05-23T03:46:00;7.7;;7.7;7.3;;;;;;
67700;SPS30;55380;54.156;18.708;2023-05-23T03:48:00;7.9;;7.9;7.5;;;;;;
67700;SPS30;55380;54.156;18.708;2023-05-23T03:50:00;7.7;;7.7;7.2;;;;;;
67700;SPS30;55380;54.156;18.708;2023-05-23T03:52:00;8.0;;8.0;7.6;;;;;;
67700;SPS30;55380;54.156;18.708;2023-05-23T03:54:00;8.3;;8.3;7.8;;;;;;
67700;SPS30;55380;54.156;18.708;2023-05-23T03:56:00;8.5;;8.5;8.0;;;;;;
67700;SPS30;55380;54.156;18.708;2023-05-23T03:58:00;8.7;;8.7;8.2;;;;;;
67700;SPS30;55380;54.156;18.708;2023-05-23T04:00:00;8.2;;8.2;7.8;;;;;;
67700;SPS30;55380;54.156;18.708;2023-05-23T04:02:00;8.2;;8.2;7.8;;;;;;
67700;SPS30;55380;54.156;18.708;2023-05-23T04:04:00;8.4;;8.4;7.9;;;;;;
67700;SPS30;55380;54.156;18.708;2023-05-23T04:06:00;9.3;;9.3;8.8;;;;;;
67700;SPS30;55380;54.156;18.708;2023-05-23T04:08:00;11.0;;11.0;10.4;;;;;;
67700;SPS30;55380;54.156;18.708;2023-05-23T04:10:00;10.7;;10.7;10.1;;;;;;
67700;SPS30;55380;54.156;18.708;2023-05-23T04:12:00;9.3;;9.3;8.8;;;;;;
67700;SPS30;55380;54.156;18.708;2023-05-23T04:14:00;8.2;;8.2;7.8;;;;;;
67700;SPS30;55380;54.156;18.708;2023-05-23T04:16:00;8.7;;8.7;8.2;;;;;;
67700;SPS30;55380;54.156;18.708;2023-05-23T04:18:00;9.2;;9.2;8.7;;;;;;
67700;SPS30;55380;54.156;18.708;2023-05-23T04:20:00;8.5;;8.5;8.0;;;;;;
67700;SPS30;55380;54.156;18.708;2023-05-23T04:22:00;8.8;;8.8;8.3;;;;;;
67700;SPS30;55380;54.156;18.708;2023-05-23T04:24:00;8.9;;8.9;8.5;;;;;;
67700;SPS30;55380;54.156;18.708;2023-05-23T04:26:00;9.4;;9.4;8.9;;;;;;
67700;SPS30;55380;54.156;18.708;2023-05-23T04:28:00;9.6;;9.6;9.1;;;;;;
67700;SPS30;55380;54.156;18.708;2023-05-23T04:30:00;10.0;;10.0;9.4;;;;;;
67700;SPS30;55380;54.156;18.708;2023-05-23T04:32:00;9.5;;9.5;9.0;;;;;;
67700;SPS30;55380;54.156;18.708;2023-05-23T04:34:00;9.6;;9.6;9.1;;;;;;
67700;SPS30;55380;54.156;18.708;2023-05-23T04:36:00;9.9;;9.9;9.3;;;;;;
67700;SPS30;55380;54.156;18.708;2023-05-23T04:38:00;10.9;;10.9;10.3;;;;;;
67700;SPS30;55380;54.156;18.708;2023-05-23T04:40:00;10.5;;10.5;9.9;;;;;;
67700;SPS30;55380;54.156;18.708;2023-05-23T04:42:00;9.5;;9.5;9.0;;;;;;
67700;SPS30;55380;54.156;18.708;2023-05-23T04:44:00;10.0;;10.0;9.4;;;;;;
67700;SPS30;55380;54.156;18.708;2023-05-23T04:46:00;9.2;;9.2;8.7;;;;;;
67700;SPS30;55380;54.156;18.708;2023-05-23T04:48:00;9.2;;9.2;8.7;;;;;;
67700;SPS30;55380;54.156;18.708;2023-05-23T04:50:00;9.6;;9.6;9.1;;;;;;
67700;SPS30;55380;54.156;18.708;2023-05-23T04:52:00;9.2;;9.2;8.7;;;;;;
67700;SPS30;55380;54.156;18.708;2023-05-23T04:54:00;9.3;;9.3;8.8;;;;;;
67700;SPS30;55380;54.156;18.708;2023-05-23T04:56:00;9.5;;9.5;9.0;;;;;;
67700;SPS30;55380;54.156;18.708;2023-05-23T04:58:00;8.6;;8.6;8.1;;;;;;
67700;SPS30;55380;54.156;18.708;2023-05-23T05:00:00;8.6;;8.6;8.1;;;;;;
67700;SPS30;55380;54.156;18.708;2023-05-23T05:02:00;8.6;;8.6;8.2;;;;;;
67700;SPS30;55380;54.156;18.708;2023-05-23T05:04:00;8.9;;8.9;8.4;;;;;;
67700;SPS30;55380;54.156;18.708;2023-05-23T05:06:01;9.3;;9.3;8.8;;;;;;
67700;SPS30;55380;54.156;18.708;2023-05-23T05:08:00;10.1;;10.1;9.6;;;;;;
67700;SPS30;55380;54.156;18.708;2023-05-23T05:10:00;10.8;;10.8;10.3;;;;;;
67700;SPS30;55380;54.156;18.708;2023-05-23T05:12:00;9.2;;9.2;8.7;;;;;;
67700;SPS30;55380;54.156;18.708;2023-05-23T05:14:00;9.8;;9.8;9.2;;;;;;
67700;SPS30;55380;54.156;18.708;2023-05-23T05:16:00;9.8;;9.8;9.3;;;;;;
67700;SPS30;55380;54.156;18.708;2023-05-23T05:18:00;9.4;;9.4;8.9;;;;;;
67700;SPS30;55380;54.156;18.708;2023-05-23T05:20:00;9.5;;9.5;9.0;;;;;;
67700;SPS30;55380;54.156;18.708;2023-05-23T05:22:00;9.0;;9.0;8.5;;;;;;
67700;SPS30;55380;54.156;18.708;2023-05-23T05:24:00;9.6;;9.6;9.1;;;;;;
67700;SPS30;55380;54.156;18.708;2023-05-23T05:26:00;9.3;;9.3;8.8;;;;;;
67700;SPS30;55380;54.156;18.708;2023-05-23T05:28:00;9.7;;9.7;9.2;;;;;;
67700;SPS30;55380;54.156;18.708;2023-05-23T05:30:00;9.0;;9.0;8.5;;;;;;
67700;SPS30;55380;54.156;18.708;2023-05-23T05:32:00;9.0;;9.0;8.5;;;;;;
67700;SPS30;55380;54.156;18.708;2023-05-23T05:34:00;8.5;;8.5;8.0;;;;;;
67700;SPS30;55380;54.156;18.708;2023-05-23T05:36:00;8.9;;8.9;8.4;;;;;;
67700;SPS30;55380;54.156;18.708;2023-05-23T05:38:00;9.0;;9.0;8.5;;;;;;
67700;SPS30;55380;54.156;18.708;2023-05-23T05:40:00;9.1;;9.1;8.6;;;;;;
67700;SPS30;55380;54.156;18.708;2023-05-23T05:42:00;9.3;;9.3;8.8;;;;;;
67700;SPS30;55380;54.156;18.708;2023-05-23T05:44:00;9.2;;9.2;8.7;;;;;;
67700;SPS30;55380;54.156;18.708;2023-05-23T05:46:00;9.5;;9.5;9.0;;;;;;
67700;SPS30;55380;54.156;18.708;2023-05-23T05:48:00;9.2;;9.2;8.7;;;;;;
67700;SPS30;55380;54.156;18.708;2023-05-23T05:50:00;9.1;;9.1;8.6;;;;;;
67700;SPS30;55380;54.156;18.708;2023-05-23T05:52:00;8.9;;8.9;8.4;;;;;;
67700;SPS30;55380;54.156;18.708;2023-05-23T05:54:00;9.7;;9.7;9.2;;;;;;
67700;SPS30;55380;54.156;18.708;2023-05-23T05:56:00;9.6;;9.6;9.1;;;;;;
67700;SPS30;55380;54.156;18.708;2023-05-23T05:58:00;9.7;;9.7;9.2;;;;;;
67700;SPS30;55380;54.156;18.708;2023-05-23T06:00:00;9.4;;9.4;8.9;;;;;;
67700;SPS30;55380;54.156;18.708;2023-05-23T06:02:00;9.3;;9.3;8.8;;;;;;
67700;SPS30;55380;54.156;18.708;2023-05-23T06:04:00;9.5;;9.5;9.0;;;;;;
67700;SPS30;55380;54.156;18.708;2023-05-23T06:06:00;10.0;;10.0;9.4;;;;;;
67700;SPS30;55380;54.156;18.708;2023-05-23T06:08:00;9.5;;9.5;8.9;;;;;;
67700;SPS30;55380;54.156;18.708;2023-05-23T06:10:00;9.6;;9.6;9.1;;;;;;
67700;SPS30;55380;54.156;18.708;2023-05-23T06:12:00;10.0;;10.0;9.5;;;;;;
67700;SPS30;55380;54.156;18.708;2023-05-23T06:14:00;9.6;;9.6;9.0;;;;;;
67700;SPS30;55380;54.156;18.708;2023-05-23T06:16:00;10.2;;10.2;9.7;;;;;;
67700;SPS30;55380;54.156;18.708;2023-05-23T06:18:00;9.5;;9.5;9.0;;;;;;
67700;SPS30;55380;54.156;18.708;2023-05-23T06:20:00;9.9;;9.9;9.4;;;;;;
67700;SPS30;55380;54.156;18.708;2023-05-23T06:22:00;10.0;;10.0;9.5;;;;;;
67700;SPS30;55380;54.156;18.708;2023-05-23T06:24:00;10.0;;10.0;9.4;;;;;;
67700;SPS30;55380;54.156;18.708;2023-05-23T06:26:00;9.9;;9.9;9.4;;;;;;
67700;SPS30;55380;54.156;18.708;2023-05-23T06:28:00;9.8;;9.8;9.3;;;;;;
67700;SPS30;55380;54.156;18.708;2023-05-23T06:30:00;8.8;;8.8;8.3;;;;;;
67700;SPS30;55380;54.156;18.708;2023-05-23T06:32:00;9.1;;9.1;8.6;;;;;;
67700;SPS30;55380;54.156;18.708;2023-05-23T06:34:00;9.0;;9.0;8.5;;;;;;
67700;SPS30;55380;54.156;18.708;2023-05-23T06:36:00;9.1;;9.1;8.6;;;;;;
67700;SPS30;55380;54.156;18.708;2023-05-23T06:38:00;9.1;;9.1;8.6;;;;;;
67700;SPS30;55380;54.156;18.708;2023-05-23T06:40:00;9.2;;9.2;8.7;;;;;;
67700;SPS30;55380;54.156;18.708;2023-05-23T06:42:00;9.5;;9.5;9.0;;;;;;
67700;SPS30;55380;54.156;18.708;2023-05-23T06:44:00;9.6;;9.6;9.1;;;;;;
67700;SPS30;55380;54.156;18.708;2023-05-23T06:46:00;9.3;;9.3;8.8;;;;;;
67700;SPS30;55380;54.156;18.708;2023-05-23T06:48:00;8.9;;8.9;8.4;;;;;;
67700;SPS30;55380;54.156;18.708;2023-05-23T06:50:00;9.1;;9.1;8.6;;;;;;
67700;SPS30;55380;54.156;18.708;2023-05-23T06:52:00;8.7;;8.7;8.3;;;;;;
67700;SPS30;55380;54.156;18.708;2023-05-23T06:54:00;8.3;;8.3;7.9;;;;;;
67700;SPS30;55380;54.156;18.708;2023-05-23T06:56:00;8.8;;8.8;8.4;;;;;;
67700;SPS30;55380;54.156;18.708;2023-05-23T06:58:00;8.1;;8.1;7.7;;;;;;
67700;SPS30;55380;54.156;18.708;2023-05-23T07:00:00;7.9;;7.9;7.5;;;;;;
67700;SPS30;55380;54.156;18.708;2023-05-23T07:02:00;8.8;;8.8;8.3;;;;;;
67700;SPS30;55380;54.156;18.708;2023-05-23T07:04:00;7.7;;7.7;7.3;;;;;;
67700;SPS30;55380;54.156;18.708;2023-05-23T07:06:00;7.3;;7.3;6.9;;;;;;
67700;SPS30;55380;54.156;18.708;2023-05-23T07:08:00;7.5;;7.5;7.1;;;;;;
67700;SPS30;55380;54.156;18.708;2023-05-23T07:10:00;7.6;;7.6;7.2;;;;;;
67700;SPS30;55380;54.156;18.708;2023-05-23T07:12:00;7.6;;7.6;7.2;;;;;;
67700;SPS30;55380;54.156;18.708;2023-05-23T07:14:00;6.9;;6.9;6.5;;;;;;
67700;SPS30;55380;54.156;18.708;2023-05-23T07:16:00;6.7;;6.7;6.3;;;;;;
67700;SPS30;55380;54.156;18.708;2023-05-23T07:18:00;6.6;;6.6;6.2;;;;;;
67700;SPS30;55380;54.156;18.708;2023-05-23T07:20:00;6.7;;6.7;6.4;;;;;;
67700;SPS30;55380;54.156;18.708;2023-05-23T07:22:00;6.8;;6.8;6.4;;;;;;
67700;SPS30;55380;54.156;18.708;2023-05-23T07:24:00;6.9;;6.9;6.5;;;;;;
67700;SPS30;55380;54.156;18.708;2023-05-23T07:26:00;7.0;;7.0;6.7;;;;;;
67700;SPS30;55380;54.156;18.708;2023-05-23T07:28:00;6.9;;6.9;6.5;;;;;;
67700;SPS30;55380;54.156;18.708;2023-05-23T07:30:00;7.1;;7.1;6.7;;;;;;
67700;SPS30;55380;54.156;18.708;2023-05-23T07:32:00;6.4;;6.4;6.1;;;;;;
67700;SPS30;55380;54.156;18.708;2023-05-23T07:34:00;6.9;;6.9;6.6;;;;;;
67700;SPS30;55380;54.156;18.708;2023-05-23T07:36:00;7.2;;7.2;6.8;;;;;;
67700;SPS30;55380;54.156;18.708;2023-05-23T07:38:00;6.4;;6.4;6.0;;;;;;
67700;SPS30;55380;54.156;18.708;2023-05-23T07:40:00;6.5;;6.5;6.1;;;;;;
67700;SPS30;55380;54.156;18.708;2023-05-23T07:42:00;6.6;;6.6;6.2;;;;;;
67700;SPS30;55380;54.156;18.708;2023-05-23T07:44:00;6.3;;6.3;5.9;;;;;;
67700;SPS30;55380;54.156;18.708;2023-05-23T07:46:00;6.4;;6.4;6.0;;;;;;
67700;SPS30;55380;54.156;18.708;2023-05-23T07:48:00;6.3;;6.3;5.9;;;;;;
67700;SPS30;55380;54.156;18.708;2023-05-23T07:50:00;6.9;;6.9;6.5;;;;;;
67700;SPS30;55380;54.156;18.708;2023-05-23T07:52:00;6.4;;6.4;6.1;;;;;;
67700;SPS30;55380;54.156;18.708;2023-05-23T07:54:00;6.1;;6.1;5.8;;;;;;
67700;SPS30;55380;54.156;18.708;2023-05-23T07:56:00;6.6;;6.6;6.2;;;;;;
67700;SPS30;55380;54.156;18.708;2023-05-23T07:58:00;6.5;;6.5;6.2;;;;;;
67700;SPS30;55380;54.156;18.708;2023-05-23T08:00:00;6.6;;6.6;6.3;;;;;;
67700;SPS30;55380;54.156;18.708;2023-05-23T08:02:00;6.2;;6.2;5.8;;;;;;
67700;SPS30;55380;54.156;18.708;2023-05-23T08:04:00;5.9;;5.9;5.6;;;;;;
67700;SPS30;55380;54.156;18.708;2023-05-23T08:06:00;6.2;;6.2;5.9;;;;;;
67700;SPS30;55380;54.156;18.708;2023-05-23T08:08:00;6.3;;6.3;6.0;;;;;;
67700;SPS30;55380;54.156;18.708;2023-05-23T08:10:00;6.4;;6.4;6.1;;;;;;
67700;SPS30;55380;54.156;18.708;2023-05-23T08:12:00;6.3;;6.3;5.9;;;;;;
67700;SPS30;55380;54.156;18.708;2023-05-23T08:14:00;5.6;;5.6;5.3;;;;;;
67700;SPS30;55380;54.156;18.708;2023-05-23T08:16:00;5.7;;5.7;5.4;;;;;;
67700;SPS30;55380;54.156;18.708;2023-05-23T08:18:00;5.1;;5.1;4.8;;;;;;
67700;SPS30;55380;54.156;18.708;2023-05-23T08:20:00;5.4;;5.4;5.1;;;;;;
67700;SPS30;55380;54.156;18.708;2023-05-23T08:22:00;5.1;;5.1;4.8;;;;;;
67700;SPS30;55380;54.156;18.708;2023-05-23T08:24:00;4.9;;4.9;4.6;;;;;;
67700;SPS30;55380;54.156;18.708;2023-05-23T08:26:00;5.0;;5.0;4.8;;;;;;
67700;SPS30;55380;54.156;18.708;2023-05-23T08:28:00;5.1;;5.1;4.8;;;;;;
67700;SPS30;55380;54.156;18.708;2023-05-23T08:30:00;5.3;;5.3;5.0;;;;;;
67700;SPS30;55380;54.156;18.708;2023-05-23T08:32:00;5.2;;5.2;5.0;;;;;;
67700;SPS30;55380;54.156;18.708;2023-05-23T08:34:00;5.2;;5.2;4.9;;;;;;
67700;SPS30;55380;54.156;18.708;2023-05-23T08:36:00;5.3;;5.3;5.1;;;;;;
67700;SPS30;55380;54.156;18.708;2023-05-23T08:38:00;5.5;;5.5;5.2;;;;;;
67700;SPS30;55380;54.156;18.708;2023-05-23T08:40:00;5.3;;5.3;5.0;;;;;;
67700;SPS30;55380;54.156;18.708;2023-05-23T08:42:00;5.5;;5.5;5.2;;;;;;
67700;SPS30;55380;54.156;18.708;2023-05-23T08:44:00;5.3;;5.3;5.0;;;;;;
67700;SPS30;55380;54.156;18.708;2023-05-23T08:46:00;5.6;;5.6;5.3;;;;;;
67700;SPS30;55380;54.156;18.708;2023-05-23T08:48:00;6.1;;6.1;5.7;;;;;;
67700;SPS30;55380;54.156;18.708;2023-05-23T08:50:00;5.7;;5.7;5.4;;;;;;
67700;SPS30;55380;54.156;18.708;2023-05-23T08:52:01;5.8;;5.8;5.4;;;;;;
67700;SPS30;55380;54.156;18.708;2023-05-23T08:54:00;5.3;;5.3;5.1;;;;;;
67700;SPS30;55380;54.156;18.708;2023-05-23T08:56:00;5.4;;5.4;5.1;;;;;;
67700;SPS30;55380;54.156;18.708;2023-05-23T08:58:00;5.9;;5.9;5.6;;;;;;
67700;SPS30;55380;54.156;18.708;2023-05-23T09:00:00;5.8;;5.8;5.5;;;;;;
67700;SPS30;55380;54.156;18.708;2023-05-23T09:02:00;5.8;;5.8;5.5;;;;;;
67700;SPS30;55380;54.156;18.708;2023-05-23T09:04:00;5.8;;5.8;5.5;;;;;;
67700;SPS30;55380;54.156;18.708;2023-05-23T09:06:00;6.1;;6.1;5.7;;;;;;
67700;SPS30;55380;54.156;18.708;2023-05-23T09:08:00;5.8;;5.8;5.5;;;;;;
67700;SPS30;55380;54.156;18.708;2023-05-23T09:10:00;5.7;;5.7;5.4;;;;;;
67700;SPS30;55380;54.156;18.708;2023-05-23T09:12:00;5.8;;5.8;5.5;;;;;;
67700;SPS30;55380;54.156;18.708;2023-05-23T09:14:00;5.5;;5.5;5.2;;;;;;
67700;SPS30;55380;54.156;18.708;2023-05-23T09:16:00;5.5;;5.5;5.2;;;;;;
67700;SPS30;55380;54.156;18.708;2023-05-23T09:18:00;6.0;;6.0;5.7;;;;;;
67700;SPS30;55380;54.156;18.708;2023-05-23T09:20:00;5.9;;5.9;5.6;;;;;;
67700;SPS30;55380;54.156;18.708;2023-05-23T09:22:01;5.9;;5.9;5.5;;;;;;
67700;SPS30;55380;54.156;18.708;2023-05-23T09:24:00;5.7;;5.7;5.4;;;;;;
67700;SPS30;55380;54.156;18.708;2023-05-23T09:26:01;6.1;;6.1;5.8;;;;;;
67700;SPS30;55380;54.156;18.708;2023-05-23T09:28:00;6.0;;6.0;5.6;;;;;;
67700;SPS30;55380;54.156;18.708;2023-05-23T09:30:04;6.2;;6.2;5.8;;;;;;
67700;SPS30;55380;54.156;18.708;2023-05-23T09:32:04;5.9;;5.9;5.6;;;;;;
67700;SPS30;55380;54.156;18.708;2023-05-23T09:34:00;6.2;;6.2;5.9;;;;;;
67700;SPS30;55380;54.156;18.708;2023-05-23T09:36:00;6.8;;6.8;6.4;;;;;;
67700;SPS30;55380;54.156;18.708;2023-05-23T09:38:00;6.4;;6.4;6.1;;;;;;
67700;SPS30;55380;54.156;18.708;2023-05-23T09:40:01;6.1;;6.1;5.8;;;;;;
67700;SPS30;55380;54.156;18.708;2023-05-23T09:42:00;6.4;;6.4;6.1;;;;;;
67700;SPS30;55380;54.156;18.708;2023-05-23T09:44:03;6.0;;6.0;5.7;;;;;;
67700;SPS30;55380;54.156;18.708;2023-05-23T09:46:00;6.3;;6.3;6.0;;;;;;
67700;SPS30;55380;54.156;18.708;2023-05-23T09:48:00;6.5;;6.5;6.1;;;;;;
67700;SPS30;55380;54.156;18.708;2023-05-23T09:50:00;6.5;;6.5;6.1;;;;;;
67700;SPS30;55380;54.156;18.708;2023-05-23T09:52:00;6.4;;6.4;6.1;;;;;;
67700;SPS30;55380;54.156;18.708;2023-05-23T09:54:00;6.5;;6.5;6.1;;;;;;
67700;SPS30;55380;54.156;18.708;2023-05-23T09:56:01;5.9;;5.9;5.6;;;;;;
67700;SPS30;55380;54.156;18.708;2023-05-23T09:58:00;5.9;;5.9;5.6;;;;;;
67700;SPS30;55380;54.156;18.708;2023-05-23T10:00:00;5.3;;5.3;5.0;;;;;;
67700;SPS30;55380;54.156;18.708;2023-05-23T10:02:01;5.5;;5.5;5.2;;;;;;
67700;SPS30;55380;54.156;18.708;2023-05-23T10:04:00;5.3;;5.3;5.0;;;;;;
67700;SPS30;55380;54.156;18.708;2023-05-23T10:06:01;5.8;;5.8;5.5;;;;;;
67700;SPS30;55380;54.156;18.708;2023-05-23T10:08:00;6.1;;6.1;5.8;;;;;;
67700;SPS30;55380;54.156;18.708;2023-05-23T10:10:02;6.0;;6.0;5.7;;;;;;
67700;SPS30;55380;54.156;18.708;2023-05-23T10:14:01;5.3;;5.3;5.0;;;;;;
67700;SPS30;55380;54.156;18.708;2023-05-23T10:16:01;4.8;;4.8;4.5;;;;;;
67700;SPS30;55380;54.156;18.708;2023-05-23T10:18:01;4.7;;4.7;4.4;;;;;;
67700;SPS30;55380;54.156;18.708;2023-05-23T10:20:02;4.4;;4.4;4.2;;;;;;
67700;SPS30;55380;54.156;18.708;2023-05-23T10:22:02;4.1;;4.1;3.9;;;;;;
67700;SPS30;55380;54.156;18.708;2023-05-23T10:24:00;4.3;;4.3;4.0;;;;;;
67700;SPS30;55380;54.156;18.708;2023-05-23T10:26:00;4.5;;4.5;4.3;;;;;;
67700;SPS30;55380;54.156;18.708;2023-05-23T10:28:00;4.4;;4.4;4.2;;;;;;
67700;SPS30;55380;54.156;18.708;2023-05-23T10:30:00;4.3;;4.3;4.1;;;;;;
67700;SPS30;55380;54.156;18.708;2023-05-23T10:32:00;4.5;;4.5;4.2;;;;;;
67700;SPS30;55380;54.156;18.708;2023-05-23T10:34:01;4.4;;4.4;4.2;;;;;;
67700;SPS30;55380;54.156;18.708;2023-05-23T10:36:02;4.9;;4.9;4.6;;;;;;
67700;SPS30;55380;54.156;18.708;2023-05-23T10:38:00;4.7;;4.7;4.4;;;;;;
67700;SPS30;55380;54.156;18.708;2023-05-23T10:40:02;4.5;;4.5;4.3;;;;;;
67700;SPS30;55380;54.156;18.708;2023-05-23T10:42:01;4.2;;4.2;4.0;;;;;;
67700;SPS30;55380;54.156;18.708;2023-05-23T10:44:01;4.4;;4.4;4.2;;;;;;
67700;SPS30;55380;54.156;18.708;2023-05-23T10:46:00;4.2;;4.2;3.9;;;;;;
67700;SPS30;55380;54.156;18.708;2023-05-23T10:48:00;4.3;;4.3;4.1;;;;;;
67700;SPS30;55380;54.156;18.708;2023-05-23T10:50:00;4.7;;4.7;4.5;;;;;;
67700;SPS30;55380;54.156;18.708;2023-05-23T10:52:00;4.6;;4.6;4.4;;;;;;
67700;SPS30;55380;54.156;18.708;2023-05-23T10:54:00;4.8;;4.8;4.5;;;;;;
67700;SPS30;55380;54.156;18.708;2023-05-23T10:56:00;4.7;;4.7;4.5;;;;;;
67700;SPS30;55380;54.156;18.708;2023-05-23T10:58:09;4.9;;4.9;4.7;;;;;;
67700;SPS30;55380;54.156;18.708;2023-05-23T11:00:00;4.8;;4.8;4.5;;;;;;
67700;SPS30;55380;54.156;18.708;2023-05-23T11:02:00;4.7;;4.7;4.5;;;;;;
67700;SPS30;55380;54.156;18.708;2023-05-23T11:04:03;5.1;;5.1;4.8;;;;;;
67700;SPS30;55380;54.156;18.708;2023-05-23T11:06:00;5.1;;5.1;4.8;;;;;;
67700;SPS30;55380;54.156;18.708;2023-05-23T11:08:08;5.0;;5.0;4.7;;;;;;
67700;SPS30;55380;54.156;18.708;2023-05-23T11:10:04;4.8;;4.8;4.6;;;;;;
67700;SPS30;55380;54.156;18.708;2023-05-23T11:12:00;4.5;;4.5;4.3;;;;;;
67700;SPS30;55380;54.156;18.708;2023-05-23T11:14:00;4.6;;4.6;4.3;;;;;;